createdAt,value
2023-05-10T00:01:27.449Z,12.52
2023-05-10T00:03:54.112Z,12.55
2023-05-10T00:06:21.269Z,12.50
2023-05-10T00:08:49.301Z,12.49
2023-05-10T00:11:15.854Z,12.47
2023-05-10T00:13:42.627Z,12.45
2023-05-10T00:16:11.549Z,12.49
2023-05-10T00:18:38.110Z,12.50
2023-05-10T00:21:05.720Z,12.49
2023-05-10T00:23:32.362Z,12.48
2023-05-10T00:25:58.874Z,12.50
2023-05-10T00:28:26.057Z,12.47
2023-05-10T00:30:52.556Z,12.48
2023-05-10T00:33:19.680Z,12.47
2023-05-10T00:35:46.283Z,12.48
2023-05-10T00:38:12.845Z,12.47
2023-05-10T00:40:39.609Z,12.44
2023-05-10T00:43:06.313Z,12.49
2023-05-10T00:45:34.084Z,12.49
2023-05-10T00:48:03.543Z,12.50
2023-05-10T00:50:32.511Z,12.49
2023-05-10T00:53:00.447Z,12.53
2023-05-10T00:55:27.338Z,12.51
2023-05-10T00:57:54.553Z,12.51
2023-05-10T01:00:21.345Z,12.51
2023-05-10T01:02:48.176Z,12.51
2023-05-10T01:05:14.914Z,12.51
2023-05-10T01:07:42.093Z,12.49
2023-05-10T01:10:10.029Z,12.49
2023-05-10T01:12:43.990Z,12.51
2023-05-10T01:15:13.853Z,12.53
2023-05-10T01:17:43.517Z,12.52
2023-05-10T01:20:11.903Z,12.53
2023-05-10T01:23:23.501Z,12.52
2023-05-10T01:26:26.820Z,12.50
2023-05-10T01:29:12.145Z,12.50
2023-05-10T01:31:58.170Z,12.52
2023-05-10T01:35:06.356Z,12.51
2023-05-10T01:37:57.000Z,12.50
2023-05-10T01:40:43.946Z,12.48
2023-05-10T01:43:20.730Z,12.48
2023-05-10T01:46:14.838Z,12.45
2023-05-10T01:48:48.377Z,12.47
2023-05-10T01:51:21.269Z,12.45
2023-05-10T01:53:49.729Z,12.43
2023-05-10T01:56:18.233Z,12.43
2023-05-10T01:58:48.565Z,12.39
2023-05-10T02:01:16.674Z,12.43
2023-05-10T02:03:43.929Z,12.49
2023-05-10T02:06:13.906Z,12.42
2023-05-10T02:08:42.434Z,12.39
2023-05-10T02:11:10.433Z,12.41
2023-05-10T02:13:40.299Z,12.35
2023-05-10T02:16:08.306Z,12.37
2023-05-10T02:18:36.968Z,12.39
2023-05-10T02:21:04.616Z,12.40
2023-05-10T02:23:32.193Z,12.38
2023-05-10T02:25:59.780Z,12.40
2023-05-10T02:28:28.199Z,12.36
2023-05-10T02:30:55.936Z,12.35
2023-05-10T02:33:23.442Z,12.33
2023-05-10T02:35:51.944Z,12.35
2023-05-10T02:38:21.838Z,12.35
2023-05-10T02:40:49.294Z,12.36
2023-05-10T02:43:18.104Z,12.34
2023-05-10T02:45:48.349Z,12.30
2023-05-10T02:48:15.573Z,12.30
2023-05-10T02:50:52.189Z,12.36
2023-05-10T02:53:32.999Z,12.34
2023-05-10T02:56:05.263Z,12.35
2023-05-10T02:58:31.913Z,12.32
2023-05-10T03:00:58.458Z,12.37
2023-05-10T03:03:25.058Z,12.40
2023-05-10T03:05:54.798Z,12.41
2023-05-10T03:08:21.307Z,12.34
2023-05-10T03:11:07.442Z,12.33
2023-05-10T03:13:45.025Z,12.29
2023-05-10T03:16:16.904Z,12.27
2023-05-10T03:18:57.770Z,12.20
2023-05-10T03:21:30.647Z,12.24
2023-05-10T03:24:08.012Z,12.24
2023-05-10T03:26:37.665Z,12.19
2023-05-10T03:29:06.033Z,12.23
2023-05-10T03:31:33.150Z,12.22
2023-05-10T03:33:59.666Z,12.17
2023-05-10T03:36:26.154Z,12.17
2023-05-10T03:38:53.472Z,12.13
2023-05-10T03:41:20.057Z,12.11
2023-05-10T03:43:46.620Z,12.12
2023-05-10T03:46:13.063Z,12.11
2023-05-10T03:48:42.406Z,12.10
2023-05-10T03:51:09.150Z,12.05
2023-05-10T03:53:35.841Z,12.03
2023-05-10T03:56:02.343Z,12.04
2023-05-10T03:58:28.897Z,12.10
2023-05-10T04:00:57.262Z,12.03
2023-05-10T04:03:24.178Z,11.94
2023-05-10T04:05:59.770Z,11.98
2023-05-10T04:08:26.761Z,11.97
2023-05-10T04:10:53.378Z,11.99
2023-05-10T04:13:20.024Z,11.94
2023-05-10T04:15:46.629Z,11.87
2023-05-10T04:18:13.156Z,11.87
2023-05-10T04:20:39.925Z,11.89
2023-05-10T04:23:06.632Z,11.78
2023-05-10T04:25:36.720Z,11.71
2023-05-10T04:28:03.279Z,11.74
2023-05-10T04:30:30.272Z,11.69
2023-05-10T04:32:57.271Z,11.80
2023-05-10T04:35:23.917Z,11.73
2023-05-10T04:37:50.596Z,11.74
2023-05-10T04:40:20.015Z,11.71
2023-05-10T04:42:46.544Z,11.74
2023-05-10T04:45:13.494Z,11.63
2023-05-10T04:47:40.383Z,11.58
2023-05-10T04:50:07.636Z,11.59
2023-05-10T04:52:34.431Z,11.66
2023-05-10T04:55:01.034Z,11.65
2023-05-10T04:57:27.509Z,11.68
2023-05-10T04:59:54.109Z,11.72
2023-05-10T05:02:20.674Z,11.74
2023-05-10T05:04:47.440Z,11.73
2023-05-10T05:07:14.192Z,11.74
2023-05-10T05:09:40.842Z,11.68
2023-05-10T05:12:07.917Z,11.69
2023-05-10T05:14:34.751Z,11.77
2023-05-10T05:17:02.215Z,11.79
2023-05-10T05:19:28.803Z,11.81
2023-05-10T05:21:55.820Z,11.85
2023-05-10T05:24:22.280Z,11.88
2023-05-10T05:26:52.251Z,11.85
2023-05-10T05:29:18.928Z,11.82
2023-05-10T05:31:45.719Z,11.91
2023-05-10T05:34:12.466Z,11.87
2023-05-10T05:36:41.533Z,11.91
2023-05-10T05:39:08.865Z,11.84
2023-05-10T05:41:36.774Z,11.85
2023-05-10T05:44:03.379Z,11.93
2023-05-10T05:46:30.237Z,11.94
2023-05-10T05:48:57.188Z,11.99
2023-05-10T05:51:23.872Z,11.91
2023-05-10T05:53:50.381Z,11.90
2023-05-10T05:56:18.445Z,11.86
2023-05-10T05:58:45.994Z,11.84
2023-05-10T06:01:12.512Z,11.85
2023-05-10T06:03:39.396Z,11.84
2023-05-10T06:06:06.749Z,11.87
2023-05-10T06:08:35.054Z,11.86
2023-05-10T06:11:03.511Z,11.84
2023-05-10T06:13:33.128Z,11.93
2023-05-10T06:16:00.145Z,11.93
2023-05-10T06:18:26.614Z,11.94
2023-05-10T06:20:53.095Z,11.99
2023-05-10T06:23:19.679Z,11.99
2023-05-10T06:25:46.185Z,11.99
2023-05-10T06:28:15.324Z,11.96
2023-05-10T06:30:41.828Z,11.99
2023-05-10T06:33:08.498Z,11.92
2023-05-10T06:35:35.124Z,11.98
2023-05-10T06:38:01.619Z,12.03
2023-05-10T06:40:28.409Z,12.11
2023-05-10T06:42:54.972Z,12.04
2023-05-10T06:45:22.000Z,12.11
2023-05-10T06:47:48.469Z,12.12
2023-05-10T06:50:15.503Z,12.09
2023-05-10T06:52:42.132Z,12.06
2023-05-10T06:55:09.790Z,12.12
2023-05-10T06:57:36.534Z,12.20
2023-05-10T07:00:05.966Z,12.24
2023-05-10T07:02:32.673Z,12.25
2023-05-10T07:05:02.351Z,12.34
2023-05-10T07:07:30.138Z,12.33
2023-05-10T07:09:58.454Z,12.38
2023-05-10T07:12:25.604Z,12.43
2023-05-10T07:14:53.571Z,12.48
2023-05-10T07:17:20.578Z,12.46
2023-05-10T07:19:47.399Z,12.60
2023-05-10T07:22:14.131Z,12.55
2023-05-10T07:24:41.668Z,12.52
2023-05-10T07:27:08.589Z,12.54
2023-05-10T07:29:35.144Z,12.59
2023-05-10T07:32:02.291Z,12.57
2023-05-10T07:34:32.229Z,12.63
2023-05-10T07:37:02.339Z,12.68
2023-05-10T07:39:29.834Z,12.65
2023-05-10T07:41:57.137Z,12.74
2023-05-10T07:44:24.231Z,12.78
2023-05-10T07:46:51.789Z,12.85
2023-05-10T07:49:18.531Z,12.86
2023-05-10T07:51:45.999Z,12.95
2023-05-10T07:54:13.678Z,13.00
2023-05-10T07:56:46.466Z,13.04
2023-05-10T07:59:17.212Z,13.01
2023-05-10T08:01:44.576Z,13.16
2023-05-10T08:04:11.698Z,13.15
2023-05-10T08:06:38.680Z,13.02
2023-05-10T08:09:05.578Z,13.08
2023-05-10T08:11:34.336Z,13.17
2023-05-10T08:14:01.754Z,13.22
2023-05-10T08:16:31.094Z,13.10
2023-05-10T08:18:57.969Z,13.32
2023-05-10T08:21:25.931Z,13.30
2023-05-10T08:23:52.758Z,13.39
2023-05-10T08:26:19.453Z,13.45
2023-05-10T08:28:46.036Z,13.59
2023-05-10T08:31:13.124Z,13.66
2023-05-10T08:33:40.903Z,13.77
2023-05-10T08:36:09.323Z,13.84
2023-05-10T08:38:36.104Z,13.94
2023-05-10T08:41:03.560Z,13.98
2023-05-10T08:43:30.935Z,14.02
2023-05-10T08:46:02.053Z,14.13
2023-05-10T08:48:30.245Z,14.25
2023-05-10T08:51:01.589Z,14.44
2023-05-10T08:53:32.250Z,14.73
2023-05-10T08:56:00.611Z,14.86
2023-05-10T08:58:27.857Z,14.89
2023-05-10T09:00:54.705Z,14.84
2023-05-10T09:03:24.244Z,14.84
2023-05-10T09:05:50.917Z,14.70
2023-05-10T09:08:18.630Z,14.66
2023-05-10T09:10:48.182Z,14.70
2023-05-10T09:13:16.874Z,14.65
2023-05-10T09:15:45.908Z,14.55
2023-05-10T09:18:13.166Z,14.66
2023-05-10T09:20:40.022Z,14.70
2023-05-10T09:23:07.389Z,14.60
2023-05-10T09:25:38.310Z,14.69
2023-05-10T09:28:09.900Z,14.71
2023-05-10T09:30:37.530Z,14.63
2023-05-10T09:33:05.374Z,14.58
2023-05-10T09:35:34.702Z,14.56
2023-05-10T09:38:08.187Z,14.51
2023-05-10T09:40:36.282Z,14.53
2023-05-10T09:43:03.240Z,14.56
2023-05-10T09:45:37.810Z,14.51
2023-05-10T09:48:08.829Z,14.67
2023-05-10T09:50:36.281Z,14.72
2023-05-10T09:53:05.120Z,14.82
2023-05-10T09:55:45.982Z,14.88
2023-05-10T09:58:14.416Z,14.99
2023-05-10T10:00:43.280Z,15.06
2023-05-10T10:03:18.483Z,14.99
2023-05-10T10:05:46.215Z,15.07
2023-05-10T10:08:13.869Z,15.17
2023-05-10T10:10:47.732Z,15.11
2023-05-10T10:13:15.082Z,15.13
2023-05-10T10:15:44.244Z,15.20
2023-05-10T10:18:15.451Z,15.25
2023-05-10T10:20:42.136Z,15.32
2023-05-10T10:23:09.189Z,15.42
2023-05-10T10:25:36.668Z,15.42
2023-05-10T10:28:13.444Z,15.28
2023-05-10T10:30:44.722Z,15.35
2023-05-10T10:33:48.594Z,15.42
2023-05-10T10:36:16.596Z,15.42
2023-05-10T10:38:42.969Z,15.45
2023-05-10T10:41:27.940Z,15.44
2023-05-10T10:44:35.286Z,15.34
2023-05-10T10:47:24.143Z,15.69
2023-05-10T10:50:03.121Z,15.88
2023-05-10T10:52:36.729Z,15.93
2023-05-10T10:55:10.365Z,15.96
2023-05-10T10:57:53.295Z,15.82
2023-05-10T11:00:34.138Z,15.73
2023-05-10T11:03:07.410Z,15.64
2023-05-10T11:05:34.406Z,15.48
2023-05-10T11:08:07.425Z,15.48
2023-05-10T11:10:34.252Z,15.55
2023-05-10T11:13:07.391Z,15.57
2023-05-10T11:15:39.562Z,15.61
2023-05-10T11:18:25.447Z,15.65
2023-05-10T11:20:55.047Z,15.76
2023-05-10T11:23:22.290Z,15.84
2023-05-10T11:25:50.191Z,15.88
2023-05-10T11:28:20.796Z,15.92
2023-05-10T11:30:48.500Z,15.91
2023-05-10T11:33:20.412Z,15.91
2023-05-10T11:35:47.266Z,15.90
2023-05-10T11:38:15.001Z,15.86
2023-05-10T11:40:42.300Z,15.85
2023-05-10T11:43:11.588Z,15.87
2023-05-10T11:45:39.428Z,15.81
2023-05-10T11:48:06.183Z,15.89
2023-05-10T11:50:33.719Z,15.75
2023-05-10T11:53:00.368Z,15.76
2023-05-10T11:55:27.127Z,15.52
2023-05-10T11:57:54.881Z,15.51
2023-05-10T12:00:22.382Z,15.43
2023-05-10T12:02:49.593Z,15.55
2023-05-10T12:05:16.926Z,15.72
2023-05-10T12:07:43.825Z,15.87
2023-05-10T12:10:19.319Z,15.91
2023-05-10T12:12:48.468Z,15.91
2023-05-10T12:15:22.100Z,15.78
2023-05-10T12:17:49.655Z,15.63
2023-05-10T12:20:21.166Z,15.63
2023-05-10T12:22:53.475Z,15.67
2023-05-10T12:25:21.862Z,15.76
2023-05-10T12:27:53.987Z,15.75
2023-05-10T12:30:32.188Z,15.99
2023-05-10T12:33:04.909Z,16.13
2023-05-10T12:35:32.408Z,16.35
2023-05-10T12:38:00.366Z,16.28
2023-05-10T12:40:27.363Z,16.22
2023-05-10T12:42:53.920Z,16.31
2023-05-10T12:45:20.739Z,16.51
2023-05-10T12:47:47.407Z,16.66
2023-05-10T12:50:14.768Z,16.83
2023-05-10T12:52:41.442Z,16.85
2023-05-10T12:55:08.651Z,16.85
2023-05-10T12:57:35.491Z,16.91
2023-05-10T13:00:02.096Z,16.77
2023-05-10T13:02:29.025Z,16.93
2023-05-10T13:04:55.695Z,16.93
2023-05-10T13:07:22.281Z,17.24
2023-05-10T13:09:48.875Z,17.26
2023-05-10T13:12:15.499Z,17.03
2023-05-10T13:14:43.167Z,16.85
2023-05-10T13:17:11.065Z,16.76
2023-05-10T13:19:38.145Z,16.61
2023-05-10T13:22:05.193Z,16.64
2023-05-10T13:24:31.842Z,16.55
2023-05-10T13:26:59.452Z,16.46
2023-05-10T13:29:26.363Z,16.41
2023-05-10T13:31:53.307Z,16.44
2023-05-10T13:34:21.773Z,16.39
2023-05-10T13:36:49.783Z,16.37
2023-05-10T13:39:17.115Z,16.36
2023-05-10T13:41:43.657Z,16.33
2023-05-10T13:44:10.329Z,16.20
2023-05-10T13:46:37.191Z,16.20
2023-05-10T13:49:03.785Z,16.27
2023-05-10T13:51:30.483Z,16.39
2023-05-10T13:53:57.421Z,16.54
2023-05-10T13:56:24.059Z,16.80
2023-05-10T13:58:50.616Z,17.08
2023-05-10T14:01:17.422Z,17.02
2023-05-10T14:03:44.469Z,16.97
2023-05-10T14:06:11.611Z,17.10
2023-05-10T14:08:41.134Z,17.00
2023-05-10T14:11:07.908Z,17.17
2023-05-10T14:13:34.906Z,17.10
2023-05-10T14:16:01.859Z,17.04
2023-05-10T14:18:29.585Z,17.16
2023-05-10T14:20:56.395Z,17.13
2023-05-10T14:23:26.995Z,17.25
2023-05-10T14:25:53.915Z,17.41
2023-05-10T14:28:21.813Z,17.64
2023-05-10T14:30:49.173Z,17.58
2023-05-10T14:33:15.855Z,17.39
2023-05-10T14:35:42.375Z,17.42
2023-05-10T14:38:09.184Z,17.57
2023-05-10T14:40:35.861Z,17.35
2023-05-10T14:43:02.605Z,17.10
2023-05-10T14:45:29.225Z,17.32
2023-05-10T14:47:55.950Z,17.32
2023-05-10T14:50:36.060Z,17.33
2023-05-10T14:53:03.826Z,17.05
2023-05-10T14:55:30.291Z,17.17
2023-05-10T14:57:57.404Z,17.06
2023-05-10T15:00:24.008Z,17.17
2023-05-10T15:02:51.477Z,16.99
2023-05-10T15:05:18.710Z,16.96
2023-05-10T15:07:46.151Z,16.86
2023-05-10T15:10:12.787Z,16.91
2023-05-10T15:12:39.578Z,17.19
2023-05-10T15:15:07.448Z,17.37
2023-05-10T15:17:34.761Z,17.18
2023-05-10T15:20:04.300Z,17.30
2023-05-10T15:22:34.345Z,17.47
2023-05-10T15:25:01.132Z,17.50
2023-05-10T15:27:27.701Z,17.37
2023-05-10T15:29:54.346Z,17.28
2023-05-10T15:32:21.008Z,17.11
2023-05-10T15:34:47.833Z,16.90
2023-05-10T15:37:14.407Z,16.93
2023-05-10T15:39:40.893Z,16.97
2023-05-10T15:42:07.453Z,16.63
2023-05-10T15:44:35.966Z,16.65
2023-05-10T15:47:03.841Z,16.73
2023-05-10T15:49:30.744Z,16.66
2023-05-10T15:51:57.264Z,16.82
2023-05-10T15:54:23.938Z,16.72
2023-05-10T15:56:50.439Z,16.81
2023-05-10T15:59:17.009Z,16.93
2023-05-10T16:01:43.578Z,17.12
2023-05-10T16:04:10.129Z,17.06
2023-05-10T16:06:38.756Z,17.00
2023-05-10T16:09:05.547Z,17.07
2023-05-10T16:11:32.137Z,16.99
2023-05-10T16:13:58.587Z,16.96
2023-05-10T16:16:25.113Z,16.91
2023-05-10T16:18:52.836Z,17.18
2023-05-10T16:21:19.756Z,17.34
2023-05-10T16:23:46.718Z,17.21
2023-05-10T16:26:13.243Z,17.17
2023-05-10T16:28:40.953Z,17.19
2023-05-10T16:31:07.629Z,17.15
2023-05-10T16:33:34.497Z,17.16
2023-05-10T16:36:01.371Z,17.10
2023-05-10T16:38:28.296Z,17.01
2023-05-10T16:40:55.312Z,16.80
2023-05-10T16:43:22.883Z,16.84
2023-05-10T16:45:50.622Z,16.86
2023-05-10T16:48:17.678Z,16.90
2023-05-10T16:50:44.873Z,16.86
2023-05-10T16:53:11.771Z,16.96
2023-05-10T16:55:38.527Z,17.08
2023-05-10T16:58:06.622Z,17.12
2023-05-10T17:00:33.137Z,17.21
2023-05-10T17:02:59.783Z,17.15
2023-05-10T17:05:26.490Z,17.23
2023-05-10T17:07:53.121Z,17.24
2023-05-10T17:10:19.805Z,17.37
2023-05-10T17:12:46.408Z,17.30
2023-05-10T17:15:13.073Z,17.18
2023-05-10T17:17:39.883Z,17.17
2023-05-10T17:20:07.494Z,17.21
2023-05-10T17:22:35.099Z,17.06
2023-05-10T17:25:01.862Z,16.99
2023-05-10T17:27:30.462Z,16.93
2023-05-10T17:29:59.377Z,16.80
2023-05-10T17:32:26.606Z,16.65
2023-05-10T17:34:53.137Z,16.64
2023-05-10T17:37:19.923Z,16.62
2023-05-10T17:39:46.707Z,16.56
2023-05-10T17:42:13.797Z,16.45
2023-05-10T17:44:40.437Z,16.45
2023-05-10T17:47:06.904Z,16.27
2023-05-10T17:49:33.946Z,16.30
2023-05-10T17:52:00.397Z,16.28
2023-05-10T17:54:27.216Z,16.15
2023-05-10T17:56:53.992Z,16.15
2023-05-10T17:59:21.516Z,16.20
2023-05-10T18:01:48.004Z,16.22
2023-05-10T18:04:14.525Z,16.16
2023-05-10T18:06:41.801Z,16.02
2023-05-10T18:09:08.550Z,15.77
2023-05-10T18:11:36.378Z,15.61
2023-05-10T18:14:02.884Z,15.60
2023-05-10T18:16:29.689Z,15.49
2023-05-10T18:18:56.629Z,15.45
2023-05-10T18:21:23.180Z,15.44
2023-05-10T18:23:50.105Z,15.39
2023-05-10T18:26:18.439Z,15.42
2023-05-10T18:28:45.151Z,15.43
2023-05-10T18:31:12.629Z,15.07
2023-05-10T18:33:39.383Z,15.02
2023-05-10T18:36:06.017Z,15.08
2023-05-10T18:38:32.738Z,15.14
2023-05-10T18:41:00.670Z,15.10
2023-05-10T18:43:27.315Z,15.04
2023-05-10T18:45:53.890Z,15.02
2023-05-10T18:48:20.454Z,14.98
2023-05-10T18:50:47.274Z,14.97
2023-05-10T18:53:14.297Z,14.94
2023-05-10T18:55:40.940Z,14.87
2023-05-10T18:58:07.605Z,14.90
2023-05-10T19:00:34.244Z,14.84
2023-05-10T19:03:00.956Z,14.68
2023-05-10T19:05:30.558Z,14.75
2023-05-10T19:07:57.593Z,14.58
2023-05-10T19:10:24.341Z,14.52
2023-05-10T19:12:51.546Z,14.51
2023-05-10T19:15:20.802Z,14.56
2023-05-10T19:17:48.187Z,14.52
2023-05-10T19:20:14.799Z,14.43
2023-05-10T19:22:54.232Z,14.39
2023-05-10T19:25:29.404Z,14.26
2023-05-10T19:27:59.450Z,14.25
2023-05-10T19:30:26.708Z,14.30
2023-05-10T19:32:53.707Z,14.29
2023-05-10T19:35:20.556Z,14.24
2023-05-10T19:37:50.873Z,14.16
2023-05-10T19:40:18.755Z,14.10
2023-05-10T19:42:45.406Z,14.12
2023-05-10T19:45:12.469Z,14.07
2023-05-10T19:47:39.226Z,14.12
2023-05-10T19:50:07.102Z,14.15
2023-05-10T19:52:33.874Z,14.13
2023-05-10T19:55:00.675Z,14.07
2023-05-10T19:57:27.626Z,14.09
2023-05-10T19:59:55.281Z,14.15
2023-05-10T20:02:22.125Z,14.08
2023-05-10T20:04:48.782Z,14.04
2023-05-10T20:07:15.551Z,13.96
2023-05-10T20:09:44.094Z,13.90
2023-05-10T20:12:10.856Z,13.84
2023-05-10T20:14:38.592Z,13.81
2023-05-10T20:17:05.742Z,13.71
2023-05-10T20:19:32.296Z,13.69
2023-05-10T20:21:58.900Z,13.57
2023-05-10T20:24:25.670Z,13.55
2023-05-10T20:26:52.534Z,13.52
2023-05-10T20:29:19.052Z,13.58
2023-05-10T20:31:45.672Z,13.56
2023-05-10T20:34:12.184Z,13.56
2023-05-10T20:36:39.052Z,13.54
2023-05-10T20:39:05.588Z,13.57
2023-05-10T20:41:32.338Z,13.58
2023-05-10T20:43:58.811Z,13.53
2023-05-10T20:46:27.107Z,13.49
2023-05-10T20:48:54.362Z,13.43
2023-05-10T20:51:20.960Z,13.43
2023-05-10T20:53:47.497Z,13.39
2023-05-10T20:56:14.215Z,13.32
2023-05-10T20:58:40.979Z,13.28
2023-05-10T21:01:07.491Z,13.39
2023-05-10T21:03:34.021Z,13.33
2023-05-10T21:06:00.836Z,13.32
2023-05-10T21:08:27.581Z,13.23
2023-05-10T21:10:54.155Z,13.24
2023-05-10T21:13:20.741Z,13.31
2023-05-10T21:15:47.255Z,13.18
2023-05-10T21:18:14.031Z,13.24
2023-05-10T21:20:41.813Z,13.24
2023-05-10T21:23:08.375Z,13.29
2023-05-10T21:25:35.652Z,13.37
2023-05-10T21:28:02.139Z,13.34
2023-05-10T21:30:28.641Z,13.36
2023-05-10T21:32:59.642Z,13.35
2023-05-10T21:35:26.512Z,13.29
2023-05-10T21:37:54.956Z,13.31
2023-05-10T21:40:27.036Z,13.29
2023-05-10T21:42:53.669Z,13.24
2023-05-10T21:45:20.706Z,13.24
2023-05-10T21:47:47.547Z,13.24
2023-05-10T21:50:14.114Z,13.22
2023-05-10T21:52:40.595Z,13.13
2023-05-10T21:55:08.670Z,13.08
2023-05-10T21:57:35.498Z,13.07
2023-05-10T22:00:02.176Z,13.08
2023-05-10T22:02:29.553Z,13.11
2023-05-10T22:04:56.288Z,13.08
2023-05-10T22:07:22.831Z,13.08
2023-05-10T22:09:49.307Z,13.10
2023-05-10T22:12:15.893Z,13.12
2023-05-10T22:14:42.495Z,13.13
2023-05-10T22:17:09.471Z,13.14
2023-05-10T22:19:36.260Z,13.14
2023-05-10T22:22:02.947Z,13.17
2023-05-10T22:24:30.234Z,13.17
2023-05-10T22:26:56.730Z,13.16
2023-05-10T22:29:27.773Z,13.21
2023-05-10T22:31:58.268Z,13.19
2023-05-10T22:34:25.143Z,13.20
2023-05-10T22:36:51.843Z,13.20
2023-05-10T22:39:18.520Z,13.22
2023-05-10T22:41:45.242Z,13.20
2023-05-10T22:44:12.119Z,13.19
2023-05-10T22:46:38.664Z,13.12
2023-05-10T22:49:06.209Z,13.15
2023-05-10T22:51:32.859Z,13.21
2023-05-10T22:53:59.458Z,13.18
2023-05-10T22:56:27.185Z,13.16
2023-05-10T22:58:53.946Z,13.08
2023-05-10T23:01:20.635Z,13.07
2023-05-10T23:03:47.199Z,13.13
2023-05-10T23:06:13.668Z,13.16
2023-05-10T23:08:40.462Z,13.19
2023-05-10T23:11:07.108Z,13.15
2023-05-10T23:13:33.729Z,13.14
2023-05-10T23:16:06.036Z,13.10
2023-05-10T23:18:33.361Z,13.14
2023-05-10T23:21:00.691Z,13.12
2023-05-10T23:23:27.573Z,13.12
2023-05-10T23:25:55.253Z,13.10
2023-05-10T23:28:21.769Z,13.14
2023-05-10T23:30:55.610Z,13.19
2023-05-10T23:33:22.869Z,13.17
2023-05-10T23:35:49.726Z,13.17
2023-05-10T23:38:16.554Z,13.18
2023-05-10T23:40:43.170Z,13.15
2023-05-10T23:43:10.191Z,13.15
2023-05-10T23:45:36.982Z,12.98
2023-05-10T23:48:03.623Z,13.14
2023-05-10T23:50:30.127Z,13.17
2023-05-10T23:52:56.570Z,13.16
2023-05-10T23:55:23.164Z,13.22
2023-05-10T23:57:49.681Z,13.23
